Nicole Leigh Reinauer — WCZ5696 — position and weather

sailwx.info

Track history (hours):
 
Tides and Currents Weather Stations Pressure Air Temp Water Temp Dewpoint Dewpoint Depression Visibility Wind Speed Wind Dir Waves Ship Positions

Nicole Leigh Reinauer

Owner: H A REINAUER INC, STATEN ISLAND, NY. More information available from US FCC via Universal Licensing System and Coast Guard Vessel Documentation Center.

Last reported at 2017-Feb-22 14:32 UTC. Time now 2017-Feb-22 15:17 UTC.
Position N 40°38' W 074°03'.

Length 167 m; draft 8 m.

Type: Pilot. MMSI: 366774330.

Date/timePositionNaut miles runAvg speedWind from/ knotsBaromVisibWave heightAir tempDewpointWater temp
2017-Feb-22 14:32N 40°38' W 074°03'0 0.0
2017-Feb-22 13:32N 40°38' W 074°03'0 0.1
2017-Feb-22 12:32N 40°38' W 074°03'0 0.2
2017-Feb-22 11:32N 40°39' W 074°03'0 0.1
2017-Feb-22 10:33N 40°39' W 074°03'5 4.9
2017-Feb-22 09:33N 40°38' W 074°09'0 0.0
2017-Feb-22 08:32N 40°38' W 074°09'0 0.0
2017-Feb-22 07:32N 40°38' W 074°09'0 0.0
2017-Feb-22 06:32N 40°38' W 074°09'0 0.0
2017-Feb-22 05:32N 40°38' W 074°09'0 0.0
2017-Feb-22 04:32N 40°38' W 074°09'0 0.0
2017-Feb-22 03:32N 40°38' W 074°09'0 0.0
2017-Feb-22 02:32N 40°38' W 074°09'0 0.0
2017-Feb-22 01:32N 40°38' W 074°09'0 0.0
2017-Feb-22 00:32N 40°38' W 074°09'1 1.3
2017-Feb-21 23:31N 40°38' W 074°08'1 1.4
2017-Feb-21 22:33N 40°38' W 074°09'0 0.0
2017-Feb-21 21:33N 40°38' W 074°09'0 0.0
2017-Feb-21 20:33N 40°38' W 074°09'0 0.0
2017-Feb-21 19:33N 40°38' W 074°09'0 0.0
2017-Feb-21 18:33N 40°38' W 074°09'0 0.0
2017-Feb-21 17:33N 40°38' W 074°09'0 0.0
2017-Feb-21 16:33N 40°38' W 074°09'0 0.0
2017-Feb-21 15:33N 40°38' W 074°09'0 0.0
2017-Feb-21 14:33N 40°38' W 074°09'0 0.0
2017-Feb-21 13:33N 40°38' W 074°09'0 0.0
2017-Feb-21 12:33N 40°38' W 074°09'0 0.0
2017-Feb-21 11:32N 40°38' W 074°09'0 0.0
2017-Feb-21 10:33N 40°38' W 074°09'0 0.0
2017-Feb-21 09:33N 40°38' W 074°09'0 0.0
2017-Feb-21 08:33N 40°38' W 074°09'0 0.0
2017-Feb-21 07:33N 40°38' W 074°09'0 0.0
2017-Feb-21 06:33N 40°38' W 074°09'0 0.0
2017-Feb-21 05:33N 40°38' W 074°09'0 0.0
2017-Feb-21 04:32N 40°38' W 074°09'0 0.0
2017-Feb-21 03:33N 40°38' W 074°09'0 0.0
2017-Feb-21 02:32N 40°38' W 074°09'0 0.0
2017-Feb-21 01:32N 40°38' W 074°09'0 0.0
2017-Feb-21 00:32N 40°38' W 074°09'0 0.0
2017-Feb-20 23:32N 40°38' W 074°09'0 0.0
2017-Feb-20 22:32N 40°38' W 074°09'0 0.0
2017-Feb-20 21:29N 40°38' W 074°09'0 0.0
2017-Feb-20 20:32N 40°38' W 074°09'0 0.0
2017-Feb-20 19:32N 40°38' W 074°09'0 0.0
2017-Feb-20 18:32N 40°38' W 074°09'0 0.0
2017-Feb-20 17:33N 40°38' W 074°09'0 0.0
2017-Feb-20 16:31N 40°38' W 074°09'0 0.0
2017-Feb-20 15:31N 40°38' W 074°09'0 0.0
2017-Feb-20 14:31N 40°38' W 074°09'0 0.0
2017-Feb-20 13:31N 40°38' W 074°09'0 0.0
2017-Feb-20 12:31N 40°38' W 074°09'0 0.0
2017-Feb-20 11:31N 40°38' W 074°09'0 0.0
2017-Feb-20 10:31N 40°38' W 074°09'0 0.0
2017-Feb-20 09:31N 40°38' W 074°09'0 0.0
2017-Feb-20 08:31N 40°38' W 074°09'0 0.0
2017-Feb-20 07:31N 40°38' W 074°09'0 0.0
2017-Feb-20 06:31N 40°38' W 074°09'0 0.0
2017-Feb-20 05:31N 40°38' W 074°09'0 0.0
2017-Feb-20 04:31N 40°38' W 074°09'0 0.0
2017-Feb-20 03:34N 40°38' W 074°09'3 3.1
2017-Feb-20 02:32N 40°39' W 074°05'0 0.0
2017-Feb-20 01:32N 40°39' W 074°05'0 0.0
2017-Feb-20 00:32N 40°39' W 074°05'0 0.0
2017-Feb-19 23:32N 40°39' W 074°05'3 3.0
2017-Feb-19 22:31N 40°38' W 074°09'0 0.0
2017-Feb-19 21:31N 40°38' W 074°09'0 0.0
2017-Feb-19 20:31N 40°38' W 074°09'0 0.0
2017-Feb-19 19:33N 40°38' W 074°09'6 5.7
2017-Feb-19 18:33N 40°40' W 074°02'0 0.1
2017-Feb-19 17:33N 40°40' W 074°02'0 0.0
2017-Feb-19 16:33N 40°40' W 074°03'0 0.1
2017-Feb-19 15:33N 40°40' W 074°02'0 0.1
2017-Feb-19 14:33N 40°40' W 074°03'0 0.0
2017-Feb-19 13:33N 40°40' W 074°03'0 0.0
2017-Feb-19 12:33N 40°40' W 074°02'0 0.0
2017-Feb-19 11:33N 40°40' W 074°02'0 0.0
2017-Feb-19 10:33N 40°40' W 074°03'0 0.2
2017-Feb-19 09:33N 40°40' W 074°02'0 0.1
2017-Feb-19 08:33N 40°40' W 074°02'0 0.2
2017-Feb-19 07:33N 40°40' W 074°02'5 5.4
2017-Feb-19 06:33N 40°38' W 074°09'5 5.4
2017-Feb-19 05:33N 40°40' W 074°02'0 0.1
2017-Feb-19 04:33N 40°40' W 074°02'0 0.1
2017-Feb-19 03:33N 40°40' W 074°02'0 0.0
2017-Feb-19 02:33N 40°40' W 074°02'0 0.0
2017-Feb-19 01:33N 40°40' W 074°02'0 0.0
2017-Feb-19 00:33N 40°40' W 074°02'0 0.0
2017-Feb-18 23:33N 40°40' W 074°02'0 0.0
2017-Feb-18 22:33N 40°40' W 074°02'0 0.2
2017-Feb-18 21:33N 40°40' W 074°02'0 0.1
2017-Feb-18 20:33N 40°40' W 074°02'0 0.1
2017-Feb-18 19:33N 40°40' W 074°02'0 0.0
2017-Feb-18 18:33N 40°40' W 074°02'0 0.0
2017-Feb-18 17:33N 40°40' W 074°02'0 0.1
2017-Feb-18 16:33N 40°40' W 074°02'0 0.1
2017-Feb-18 15:33N 40°40' W 074°02'0 0.1
2017-Feb-18 14:33N 40°40' W 074°02'0 0.1
2017-Feb-18 13:33N 40°40' W 074°02'0 0.0
2017-Feb-18 12:33N 40°40' W 074°02'0 0.0
2017-Feb-18 11:33N 40°40' W 074°02'0 0.1
2017-Feb-18 10:33N 40°40' W 074°02'0 0.2
2017-Feb-18 09:33N 40°40' W 074°02'0 0.1
2017-Feb-18 08:33N 40°40' W 074°02'0 0.0
2017-Feb-18 07:33N 40°40' W 074°02'0 0.0
2017-Feb-18 06:33N 40°40' W 074°02'0 0.0
2017-Feb-18 05:33N 40°40' W 074°02'0 0.1
2017-Feb-18 04:33N 40°40' W 074°02'0 0.1
2017-Feb-18 03:33N 40°40' W 074°02'0 0.0
2017-Feb-18 02:33N 40°40' W 074°02'0 0.0
2017-Feb-18 01:33N 40°40' W 074°02'0 0.0
2017-Feb-18 00:33N 40°40' W 074°02'0 0.0
2017-Feb-17 23:33N 40°40' W 074°02'0 0.0
2017-Feb-17 22:33N 40°40' W 074°02'0 0.0
2017-Feb-17 21:33N 40°40' W 074°02'0 0.0
2017-Feb-17 20:33N 40°40' W 074°02'0 0.1
2017-Feb-17 19:33N 40°40' W 074°02'0 0.1
2017-Feb-17 18:33N 40°40' W 074°02'0 0.0
2017-Feb-17 17:33N 40°40' W 074°02'0 0.0
2017-Feb-17 16:33N 40°40' W 074°02'0 0.0
2017-Feb-17 15:33N 40°40' W 074°02'0 0.0
2017-Feb-17 14:30N 40°40' W 074°02'0 0.1
2017-Feb-17 13:33N 40°40' W 074°02'0 0.0
2017-Feb-17 12:33N 40°40' W 074°02'0 0.0
2017-Feb-17 11:33N 40°40' W 074°02'0 0.0
2017-Feb-17 10:33N 40°40' W 074°02'0 0.0
2017-Feb-17 09:33N 40°40' W 074°02'0 0.1
2017-Feb-17 08:33N 40°40' W 074°02'0 0.0
2017-Feb-17 07:33N 40°40' W 074°02'0 0.1
2017-Feb-17 06:33N 40°40' W 074°02'0 0.1
2017-Feb-17 05:33N 40°40' W 074°02'0 0.1
2017-Feb-17 04:33N 40°40' W 074°02'0 0.1
2017-Feb-17 03:33N 40°40' W 074°02'0 0.0
2017-Feb-17 02:33N 40°40' W 074°02'0 0.0
2017-Feb-17 01:33N 40°40' W 074°02'0 0.0
2017-Feb-17 00:33N 40°40' W 074°02'0 0.0
2017-Feb-16 23:33N 40°40' W 074°02'0 0.0
2017-Feb-16 22:33N 40°40' W 074°02'0 0.0
2017-Feb-16 21:33N 40°40' W 074°02'0 0.0
2017-Feb-16 20:33N 40°40' W 074°02'0 0.0
2017-Feb-16 19:33N 40°40' W 074°02'0 0.1
2017-Feb-16 18:33N 40°40' W 074°02'0 0.0
2017-Feb-16 17:33N 40°40' W 074°02'0 0.0
2017-Feb-16 16:33N 40°40' W 074°02'0 0.0
2017-Feb-16 15:33N 40°40' W 074°02'0 0.0
2017-Feb-16 14:33N 40°40' W 074°02'0 0.0
2017-Feb-16 13:33N 40°40' W 074°02'0 0.0
2017-Feb-16 12:33N 40°40' W 074°02'0 0.0
2017-Feb-16 11:33N 40°40' W 074°02'0 0.0
2017-Feb-16 10:33N 40°40' W 074°02'0 0.0
2017-Feb-16 09:33N 40°40' W 074°02'0 0.0
2017-Feb-16 08:33N 40°40' W 074°02'0 0.1
2017-Feb-16 07:33N 40°40' W 074°02'0 0.0
2017-Feb-16 06:33N 40°40' W 074°02'0 0.0
2017-Feb-16 05:33N 40°40' W 074°02'0 0.0
2017-Feb-16 04:33N 40°40' W 074°02'0 0.0
2017-Feb-16 03:33N 40°40' W 074°02'0 0.1
2017-Feb-16 02:33N 40°40' W 074°02'0 0.0
2017-Feb-16 01:33N 40°40' W 074°02'0 0.0
2017-Feb-16 00:33N 40°40' W 074°02'0 0.0
2017-Feb-15 23:33N 40°40' W 074°02'0 0.0
2017-Feb-15 22:33N 40°40' W 074°02'4 4.3
2017-Feb-15 21:33N 40°38' W 074°08'0 0.0
2017-Feb-15 20:33N 40°38' W 074°08'0 0.0
2017-Feb-15 19:34N 40°38' W 074°08'0 0.0
2017-Feb-15 18:33N 40°38' W 074°08'0 0.0
2017-Feb-15 17:33N 40°38' W 074°08'0 0.0
2017-Feb-15 16:33N 40°38' W 074°08'0 0.1
2017-Feb-15 15:33N 40°38' W 074°08'4 3.8
2017-Feb-15 14:33N 40°37' W 074°12'1 0.4
2017-Feb-15 12:33N 40°36' W 074°12'3 3.3
2017-Feb-15 11:34N 40°39' W 074°10'5 5.5
2017-Feb-15 10:34N 40°40' W 074°03'7 6.7
2017-Feb-15 09:34N 40°33' W 074°02'9 8.5
2017-Feb-15 08:33N 40°27' W 073°54'10 9.6
2017-Feb-15 07:31N 40°17' W 073°55'2510.7
2017-Feb-15 05:12N 39°53' W 073°58'911.4
2017-Feb-15 04:24N 39°44' W 073°59'1011.4
2017-Feb-15 03:33N 39°35' W 074°05'2811.3
2017-Feb-15 01:04N 39°10' W 074°22'611.2
2017-Feb-15 00:31N 39°05' W 074°26'1111.0
2017-Feb-14 23:31N 38°55' W 074°32'1110.7
2017-Feb-14 22:32N 38°45' W 074°36'12410.3
2017-Feb-14 10:28N 36°57' W 075°53'15 0.7
2017-Feb-13 14:05N 37°06' W 076°08'611.2
2017-Feb-13 13:33N 37°02' W 076°03'1010.1
2017-Feb-13 12:33N 36°55' W 075°54'176 9.1
2017-Feb-12 17:20N 34°03' W 076°43'  
Track history (hours):
 
Tides and Currents Weather Stations Pressure Air Temp Water Temp Dewpoint Dewpoint Depression Visibility Wind Speed Wind Dir Waves Ship Positions

Nicole Leigh Reinauer

Owner: H A REINAUER INC, STATEN ISLAND, NY. More information available from US FCC via Universal Licensing System and Coast Guard Vessel Documentation Center.

Last reported at 2017-Feb-22 14:32 UTC. Time now 2017-Feb-22 15:17 UTC.
Position N 40°38' W 074°03'.

Length 167 m; draft 8 m.

Type: Pilot. MMSI: 366774330.

Date/timePositionNaut miles runAvg speedWind from/ knotsBaromVisibWave heightAir tempDewpointWater temp
2017-Feb-22 14:32N 40°38' W 074°03'0 0.0
2017-Feb-22 13:32N 40°38' W 074°03'0 0.1
2017-Feb-22 12:32N 40°38' W 074°03'0 0.2
2017-Feb-22 11:32N 40°39' W 074°03'0 0.1
2017-Feb-22 10:33N 40°39' W 074°03'5 4.9
2017-Feb-22 09:33N 40°38' W 074°09'0 0.0
2017-Feb-22 08:32N 40°38' W 074°09'0 0.0
2017-Feb-22 07:32N 40°38' W 074°09'0 0.0
2017-Feb-22 06:32N 40°38' W 074°09'0 0.0
2017-Feb-22 05:32N 40°38' W 074°09'0 0.0
2017-Feb-22 04:32N 40°38' W 074°09'0 0.0
2017-Feb-22 03:32N 40°38' W 074°09'0 0.0
2017-Feb-22 02:32N 40°38' W 074°09'0 0.0
2017-Feb-22 01:32N 40°38' W 074°09'0 0.0
2017-Feb-22 00:32N 40°38' W 074°09'1 1.3
2017-Feb-21 23:31N 40°38' W 074°08'1 1.4
2017-Feb-21 22:33N 40°38' W 074°09'0 0.0
2017-Feb-21 21:33N 40°38' W 074°09'0 0.0
2017-Feb-21 20:33N 40°38' W 074°09'0 0.0
2017-Feb-21 19:33N 40°38' W 074°09'0 0.0
2017-Feb-21 18:33N 40°38' W 074°09'0 0.0
2017-Feb-21 17:33N 40°38' W 074°09'0 0.0
2017-Feb-21 16:33N 40°38' W 074°09'0 0.0
2017-Feb-21 15:33N 40°38' W 074°09'0 0.0
2017-Feb-21 14:33N 40°38' W 074°09'0 0.0
2017-Feb-21 13:33N 40°38' W 074°09'0 0.0
2017-Feb-21 12:33N 40°38' W 074°09'0 0.0
2017-Feb-21 11:32N 40°38' W 074°09'0 0.0
2017-Feb-21 10:33N 40°38' W 074°09'0 0.0
2017-Feb-21 09:33N 40°38' W 074°09'0 0.0
2017-Feb-21 08:33N 40°38' W 074°09'0 0.0
2017-Feb-21 07:33N 40°38' W 074°09'0 0.0
2017-Feb-21 06:33N 40°38' W 074°09'0 0.0
2017-Feb-21 05:33N 40°38' W 074°09'0 0.0
2017-Feb-21 04:32N 40°38' W 074°09'0 0.0
2017-Feb-21 03:33N 40°38' W 074°09'0 0.0
2017-Feb-21 02:32N 40°38' W 074°09'0 0.0
2017-Feb-21 01:32N 40°38' W 074°09'0 0.0
2017-Feb-21 00:32N 40°38' W 074°09'0 0.0
2017-Feb-20 23:32N 40°38' W 074°09'0 0.0
2017-Feb-20 22:32N 40°38' W 074°09'0 0.0
2017-Feb-20 21:29N 40°38' W 074°09'0 0.0
2017-Feb-20 20:32N 40°38' W 074°09'0 0.0
2017-Feb-20 19:32N 40°38' W 074°09'0 0.0
2017-Feb-20 18:32N 40°38' W 074°09'0 0.0
2017-Feb-20 17:33N 40°38' W 074°09'0 0.0
2017-Feb-20 16:31N 40°38' W 074°09'0 0.0
2017-Feb-20 15:31N 40°38' W 074°09'0 0.0
2017-Feb-20 14:31N 40°38' W 074°09'0 0.0
2017-Feb-20 13:31N 40°38' W 074°09'0 0.0
2017-Feb-20 12:31N 40°38' W 074°09'0 0.0
2017-Feb-20 11:31N 40°38' W 074°09'0 0.0
2017-Feb-20 10:31N 40°38' W 074°09'0 0.0
2017-Feb-20 09:31N 40°38' W 074°09'0 0.0
2017-Feb-20 08:31N 40°38' W 074°09'0 0.0
2017-Feb-20 07:31N 40°38' W 074°09'0 0.0
2017-Feb-20 06:31N 40°38' W 074°09'0 0.0
2017-Feb-20 05:31N 40°38' W 074°09'0 0.0
2017-Feb-20 04:31N 40°38' W 074°09'0 0.0
2017-Feb-20 03:34N 40°38' W 074°09'3 3.1
2017-Feb-20 02:32N 40°39' W 074°05'0 0.0
2017-Feb-20 01:32N 40°39' W 074°05'0 0.0
2017-Feb-20 00:32N 40°39' W 074°05'0 0.0
2017-Feb-19 23:32N 40°39' W 074°05'3 3.0
2017-Feb-19 22:31N 40°38' W 074°09'0 0.0
2017-Feb-19 21:31N 40°38' W 074°09'0 0.0
2017-Feb-19 20:31N 40°38' W 074°09'0 0.0
2017-Feb-19 19:33N 40°38' W 074°09'6 5.7
2017-Feb-19 18:33N 40°40' W 074°02'0 0.1
2017-Feb-19 17:33N 40°40' W 074°02'0 0.0
2017-Feb-19 16:33N 40°40' W 074°03'0 0.1
2017-Feb-19 15:33N 40°40' W 074°02'0 0.1
2017-Feb-19 14:33N 40°40' W 074°03'0 0.0
2017-Feb-19 13:33N 40°40' W 074°03'0 0.0
2017-Feb-19 12:33N 40°40' W 074°02'0 0.0
2017-Feb-19 11:33N 40°40' W 074°02'0 0.0
2017-Feb-19 10:33N 40°40' W 074°03'0 0.2
2017-Feb-19 09:33N 40°40' W 074°02'0 0.1
2017-Feb-19 08:33N 40°40' W 074°02'0 0.2
2017-Feb-19 07:33N 40°40' W 074°02'5 5.4
2017-Feb-19 06:33N 40°38' W 074°09'5 5.4
2017-Feb-19 05:33N 40°40' W 074°02'0 0.1
2017-Feb-19 04:33N 40°40' W 074°02'0 0.1
2017-Feb-19 03:33N 40°40' W 074°02'0 0.0
2017-Feb-19 02:33N 40°40' W 074°02'0 0.0
2017-Feb-19 01:33N 40°40' W 074°02'0 0.0
2017-Feb-19 00:33N 40°40' W 074°02'0 0.0
2017-Feb-18 23:33N 40°40' W 074°02'0 0.0
2017-Feb-18 22:33N 40°40' W 074°02'0 0.2
2017-Feb-18 21:33N 40°40' W 074°02'0 0.1
2017-Feb-18 20:33N 40°40' W 074°02'0 0.1
2017-Feb-18 19:33N 40°40' W 074°02'0 0.0
2017-Feb-18 18:33N 40°40' W 074°02'0 0.0
2017-Feb-18 17:33N 40°40' W 074°02'0 0.1
2017-Feb-18 16:33N 40°40' W 074°02'0 0.1
2017-Feb-18 15:33N 40°40' W 074°02'0 0.1
2017-Feb-18 14:33N 40°40' W 074°02'0 0.1
2017-Feb-18 13:33N 40°40' W 074°02'0 0.0
2017-Feb-18 12:33N 40°40' W 074°02'0 0.0
2017-Feb-18 11:33N 40°40' W 074°02'0 0.1
2017-Feb-18 10:33N 40°40' W 074°02'0 0.2
2017-Feb-18 09:33N 40°40' W 074°02'0 0.1
2017-Feb-18 08:33N 40°40' W 074°02'0 0.0
2017-Feb-18 07:33N 40°40' W 074°02'0 0.0
2017-Feb-18 06:33N 40°40' W 074°02'0 0.0
2017-Feb-18 05:33N 40°40' W 074°02'0 0.1
2017-Feb-18 04:33N 40°40' W 074°02'0 0.1
2017-Feb-18 03:33N 40°40' W 074°02'0 0.0
2017-Feb-18 02:33N 40°40' W 074°02'0 0.0
2017-Feb-18 01:33N 40°40' W 074°02'0 0.0
2017-Feb-18 00:33N 40°40' W 074°02'0 0.0
2017-Feb-17 23:33N 40°40' W 074°02'0 0.0
2017-Feb-17 22:33N 40°40' W 074°02'0 0.0
2017-Feb-17 21:33N 40°40' W 074°02'0 0.0
2017-Feb-17 20:33N 40°40' W 074°02'0 0.1
2017-Feb-17 19:33N 40°40' W 074°02'0 0.1
2017-Feb-17 18:33N 40°40' W 074°02'0 0.0
2017-Feb-17 17:33N 40°40' W 074°02'0 0.0
2017-Feb-17 16:33N 40°40' W 074°02'0 0.0
2017-Feb-17 15:33N 40°40' W 074°02'0 0.0
2017-Feb-17 14:30N 40°40' W 074°02'0 0.1
2017-Feb-17 13:33N 40°40' W 074°02'0 0.0
2017-Feb-17 12:33N 40°40' W 074°02'0 0.0
2017-Feb-17 11:33N 40°40' W 074°02'0 0.0
2017-Feb-17 10:33N 40°40' W 074°02'0 0.0
2017-Feb-17 09:33N 40°40' W 074°02'0 0.1
2017-Feb-17 08:33N 40°40' W 074°02'0 0.0
2017-Feb-17 07:33N 40°40' W 074°02'0 0.1
2017-Feb-17 06:33N 40°40' W 074°02'0 0.1
2017-Feb-17 05:33N 40°40' W 074°02'0 0.1
2017-Feb-17 04:33N 40°40' W 074°02'0 0.1
2017-Feb-17 03:33N 40°40' W 074°02'0 0.0
2017-Feb-17 02:33N 40°40' W 074°02'0 0.0
2017-Feb-17 01:33N 40°40' W 074°02'0 0.0
2017-Feb-17 00:33N 40°40' W 074°02'0 0.0
2017-Feb-16 23:33N 40°40' W 074°02'0 0.0
2017-Feb-16 22:33N 40°40' W 074°02'0 0.0
2017-Feb-16 21:33N 40°40' W 074°02'0 0.0
2017-Feb-16 20:33N 40°40' W 074°02'0 0.0
2017-Feb-16 19:33N 40°40' W 074°02'0 0.1
2017-Feb-16 18:33N 40°40' W 074°02'0 0.0
2017-Feb-16 17:33N 40°40' W 074°02'0 0.0
2017-Feb-16 16:33N 40°40' W 074°02'0 0.0
2017-Feb-16 15:33N 40°40' W 074°02'0 0.0
2017-Feb-16 14:33N 40°40' W 074°02'0 0.0
2017-Feb-16 13:33N 40°40' W 074°02'0 0.0
2017-Feb-16 12:33N 40°40' W 074°02'0 0.0
2017-Feb-16 11:33N 40°40' W 074°02'0 0.0
2017-Feb-16 10:33N 40°40' W 074°02'0 0.0
2017-Feb-16 09:33N 40°40' W 074°02'0 0.0
2017-Feb-16 08:33N 40°40' W 074°02'0 0.1
2017-Feb-16 07:33N 40°40' W 074°02'0 0.0
2017-Feb-16 06:33N 40°40' W 074°02'0 0.0
2017-Feb-16 05:33N 40°40' W 074°02'0 0.0
2017-Feb-16 04:33N 40°40' W 074°02'0 0.0
2017-Feb-16 03:33N 40°40' W 074°02'0 0.1
2017-Feb-16 02:33N 40°40' W 074°02'0 0.0
2017-Feb-16 01:33N 40°40' W 074°02'0 0.0
2017-Feb-16 00:33N 40°40' W 074°02'0 0.0
2017-Feb-15 23:33N 40°40' W 074°02'0 0.0
2017-Feb-15 22:33N 40°40' W 074°02'4 4.3
2017-Feb-15 21:33N 40°38' W 074°08'0 0.0
2017-Feb-15 20:33N 40°38' W 074°08'0 0.0
2017-Feb-15 19:34N 40°38' W 074°08'0 0.0
2017-Feb-15 18:33N 40°38' W 074°08'0 0.0
2017-Feb-15 17:33N 40°38' W 074°08'0 0.0
2017-Feb-15 16:33N 40°38' W 074°08'0 0.1
2017-Feb-15 15:33N 40°38' W 074°08'4 3.8
2017-Feb-15 14:33N 40°37' W 074°12'1 0.4
2017-Feb-15 12:33N 40°36' W 074°12'3 3.3
2017-Feb-15 11:34N 40°39' W 074°10'5 5.5
2017-Feb-15 10:34N 40°40' W 074°03'7 6.7
2017-Feb-15 09:34N 40°33' W 074°02'9 8.5
2017-Feb-15 08:33N 40°27' W 073°54'10 9.6
2017-Feb-15 07:31N 40°17' W 073°55'2510.7
2017-Feb-15 05:12N 39°53' W 073°58'911.4
2017-Feb-15 04:24N 39°44' W 073°59'1011.4
2017-Feb-15 03:33N 39°35' W 074°05'2811.3
2017-Feb-15 01:04N 39°10' W 074°22'611.2
2017-Feb-15 00:31N 39°05' W 074°26'1111.0
2017-Feb-14 23:31N 38°55' W 074°32'1110.7
2017-Feb-14 22:32N 38°45' W 074°36'12410.3
2017-Feb-14 10:28N 36°57' W 075°53'15 0.7
2017-Feb-13 14:05N 37°06' W 076°08'611.2
2017-Feb-13 13:33N 37°02' W 076°03'1010.1
2017-Feb-13 12:33N 36°55' W 075°54'176 9.1
2017-Feb-12 17:20N 34°03' W 076°43'  

Dump ship's entire track history